createdAt,value
2023-04-21T00:01:46.151Z,100810.91
2023-04-21T00:04:13.747Z,100809.00
2023-04-21T00:06:41.598Z,100819.09
2023-04-21T00:09:07.983Z,100820.22
2023-04-21T00:11:34.408Z,100813.59
2023-04-21T00:14:00.825Z,100819.56
2023-04-21T00:16:27.359Z,100810.31
2023-04-21T00:18:53.774Z,100808.66
2023-04-21T00:21:20.144Z,100796.72
2023-04-21T00:23:47.371Z,100803.63
2023-04-21T00:26:13.790Z,100796.69
2023-04-21T00:28:43.279Z,100796.13
2023-04-21T00:31:09.709Z,100785.84
2023-04-21T00:33:36.162Z,100786.56
2023-04-21T00:36:02.528Z,100780.31
2023-04-21T00:38:28.914Z,100770.34
2023-04-21T00:40:55.505Z,100763.88
2023-04-21T00:43:22.018Z,100759.78
2023-04-21T00:45:48.432Z,100757.72
2023-04-21T00:48:14.875Z,100771.59
2023-04-21T00:50:41.352Z,100761.19
2023-04-21T00:53:07.730Z,100753.69
2023-04-21T00:55:34.134Z,100754.81
2023-04-21T00:58:02.375Z,100742.56
2023-04-21T01:00:29.145Z,100758.94
2023-04-21T01:02:56.445Z,100766.00
2023-04-21T01:05:23.028Z,100760.59
2023-04-21T01:07:49.394Z,100763.38
2023-04-21T01:10:15.790Z,100753.41
2023-04-21T01:12:42.167Z,100767.69
2023-04-21T01:15:08.533Z,100774.97
2023-04-21T01:17:38.854Z,100760.25
2023-04-21T01:20:06.216Z,100759.38
2023-04-21T01:22:33.706Z,100762.25
2023-04-21T01:25:00.110Z,100740.56
2023-04-21T01:27:26.942Z,100732.94
2023-04-21T01:29:53.756Z,100751.66
2023-04-21T01:32:20.295Z,100750.53
2023-04-21T01:34:46.856Z,100742.13
2023-04-21T01:37:13.355Z,100738.00
2023-04-21T01:39:39.968Z,100738.72
2023-04-21T01:42:06.380Z,100750.78
2023-04-21T01:44:32.777Z,100740.72
2023-04-21T01:46:59.105Z,100740.63
2023-04-21T01:49:25.518Z,100740.50
2023-04-21T01:51:51.887Z,100746.94
2023-04-21T01:54:19.403Z,100732.22
2023-04-21T01:56:45.850Z,100726.09
2023-04-21T01:59:12.355Z,100728.66
2023-04-21T02:01:38.789Z,100726.53
2023-04-21T02:04:05.525Z,100729.13
2023-04-21T02:06:32.152Z,100724.53
2023-04-21T02:08:59.012Z,100724.38
2023-04-21T02:11:27.733Z,100724.72
2023-04-21T02:13:54.206Z,100734.38
2023-04-21T02:16:20.823Z,100731.44
2023-04-21T02:18:48.389Z,100717.84
2023-04-21T02:21:15.600Z,100725.75
2023-04-21T02:23:41.983Z,100730.50
2023-04-21T02:26:08.342Z,100725.38
2023-04-21T02:28:34.784Z,100726.91
2023-04-21T02:31:01.170Z,100725.28
2023-04-21T02:33:27.635Z,100720.75
2023-04-21T02:35:54.034Z,100719.56
2023-04-21T02:38:20.437Z,100707.72
2023-04-21T02:40:46.776Z,100718.28
2023-04-21T02:43:13.289Z,100717.22
2023-04-21T02:45:39.655Z,100721.47
2023-04-21T02:48:06.102Z,100719.69
2023-04-21T02:50:32.554Z,100715.44
2023-04-21T02:52:58.913Z,100718.56
2023-04-21T02:55:25.256Z,100716.66
2023-04-21T02:57:51.656Z,100713.44
2023-04-21T03:00:18.033Z,100707.59
2023-04-21T03:02:44.857Z,100703.28
2023-04-21T03:05:12.555Z,100706.44
2023-04-21T03:07:38.937Z,100714.88
2023-04-21T03:10:06.334Z,100713.13
2023-04-21T03:12:32.717Z,100721.91
2023-04-21T03:14:59.127Z,100723.63
2023-04-21T03:17:25.565Z,100727.31
2023-04-21T03:19:52.050Z,100720.81
2023-04-21T03:22:18.486Z,100720.09
2023-04-21T03:24:44.838Z,100722.22
2023-04-21T03:27:11.348Z,100725.25
2023-04-21T03:29:37.971Z,100726.56
2023-04-21T03:32:04.439Z,100726.09
2023-04-21T03:34:30.956Z,100723.84
2023-04-21T03:36:59.507Z,100724.38
2023-04-21T03:39:26.171Z,100728.38
2023-04-21T03:41:53.339Z,100729.34
2023-04-21T03:44:19.750Z,100730.09
2023-04-21T03:46:46.121Z,100731.81
2023-04-21T03:49:12.619Z,100730.13
2023-04-21T03:51:38.976Z,100733.78
2023-04-21T03:54:05.372Z,100734.66
2023-04-21T03:56:31.817Z,100729.34
2023-04-21T03:58:58.202Z,100721.66
2023-04-21T04:01:24.604Z,100724.34
2023-04-21T04:03:51.206Z,100717.09
2023-04-21T04:06:17.750Z,100719.00
2023-04-21T04:08:44.103Z,100718.22
2023-04-21T04:11:10.444Z,100710.19
2023-04-21T04:13:36.856Z,100717.28
2023-04-21T04:16:03.318Z,100709.16
2023-04-21T04:18:29.738Z,100716.16
2023-04-21T04:20:56.062Z,100709.28
2023-04-21T04:23:22.419Z,100713.94
2023-04-21T04:25:49.293Z,100712.88
2023-04-21T04:28:16.064Z,100715.75
2023-04-21T04:30:42.709Z,100715.38
2023-04-21T04:33:10.118Z,100723.28
2023-04-21T04:35:36.659Z,100723.75
2023-04-21T04:38:04.310Z,100724.34
2023-04-21T04:40:30.763Z,100729.66
2023-04-21T04:42:57.226Z,100717.47
2023-04-21T04:45:23.646Z,100715.94
2023-04-21T04:47:50.149Z,100721.97
2023-04-21T04:50:16.584Z,100732.56
2023-04-21T04:52:46.753Z,100725.50
2023-04-21T04:55:13.332Z,100728.75
2023-04-21T04:57:39.814Z,100726.84
2023-04-21T05:00:07.287Z,100734.63
2023-04-21T05:02:33.806Z,100736.53
2023-04-21T05:05:00.396Z,100742.41
2023-04-21T05:07:26.807Z,100736.13
2023-04-21T05:09:53.203Z,100740.03
2023-04-21T05:12:19.580Z,100734.78
2023-04-21T05:14:45.923Z,100744.13
2023-04-21T05:17:12.289Z,100748.94
2023-04-21T05:19:38.590Z,100754.22
2023-04-21T05:22:06.593Z,100742.06
2023-04-21T05:24:33.017Z,100747.25
2023-04-21T05:26:59.529Z,100749.66
2023-04-21T05:29:25.902Z,100745.44
2023-04-21T05:31:52.292Z,100749.78
2023-04-21T05:34:19.081Z,100745.50
2023-04-21T05:36:45.727Z,100741.25
2023-04-21T05:39:12.117Z,100741.63
2023-04-21T05:41:38.514Z,100750.34
2023-04-21T05:44:05.012Z,100746.84
2023-04-21T05:46:31.556Z,100747.38
2023-04-21T05:48:58.056Z,100754.31
2023-04-21T05:51:24.515Z,100748.34
2023-04-21T05:53:50.888Z,100746.31
2023-04-21T05:56:17.232Z,100748.31
2023-04-21T05:58:43.689Z,100755.16
2023-04-21T06:01:10.285Z,100750.31
2023-04-21T06:03:36.840Z,100750.22
2023-04-21T06:06:03.472Z,100741.34
2023-04-21T06:08:29.854Z,100749.28
2023-04-21T06:10:56.354Z,100739.66
2023-04-21T06:13:22.772Z,100742.25
2023-04-21T06:15:49.129Z,100731.34
2023-04-21T06:18:16.270Z,100732.22
2023-04-21T06:20:42.778Z,100728.63
2023-04-21T06:23:09.634Z,100741.13
2023-04-21T06:25:36.391Z,100738.50
2023-04-21T06:28:02.845Z,100744.81
2023-04-21T06:30:29.202Z,100753.00
2023-04-21T06:32:55.603Z,100738.91
2023-04-21T06:35:22.110Z,100740.66
2023-04-21T06:37:48.502Z,100751.38
2023-04-21T06:40:16.343Z,100746.81
2023-04-21T06:42:42.904Z,100740.00
2023-04-21T06:45:09.644Z,100734.63
2023-04-21T06:47:36.178Z,100731.06
2023-04-21T06:50:02.585Z,100737.31
2023-04-21T06:52:28.921Z,100736.34
2023-04-21T06:54:55.502Z,100733.72
2023-04-21T06:57:21.843Z,100726.56
2023-04-21T06:59:48.274Z,100728.41
2023-04-21T07:02:14.722Z,100730.16
2023-04-21T07:04:41.257Z,100732.88
2023-04-21T07:07:07.697Z,100738.16
2023-04-21T07:09:34.099Z,100731.94
2023-04-21T07:12:01.042Z,100732.78
2023-04-21T07:14:27.420Z,100730.94
2023-04-21T07:16:55.011Z,100730.97
2023-04-21T07:19:21.544Z,100727.44
2023-04-21T07:21:48.033Z,100726.56
2023-04-21T07:24:14.472Z,100726.63
2023-04-21T07:26:40.850Z,100729.31
2023-04-21T07:29:07.227Z,100722.25
2023-04-21T07:31:33.867Z,100724.84
2023-04-21T07:34:00.645Z,100733.72
2023-04-21T07:36:29.766Z,100722.19
2023-04-21T07:38:57.509Z,100721.41
2023-04-21T07:41:23.859Z,100717.84
2023-04-21T07:43:52.501Z,100718.72
2023-04-21T07:46:20.377Z,100715.16
2023-04-21T07:48:46.827Z,100716.94
2023-04-21T07:51:13.185Z,100719.59
2023-04-21T07:53:39.622Z,100728.47
2023-04-21T07:56:07.397Z,100719.63
2023-04-21T07:58:33.796Z,100724.06
2023-04-21T08:01:00.198Z,100724.06
2023-04-21T08:03:27.162Z,100719.56
2023-04-21T08:05:54.144Z,100722.22
2023-04-21T08:08:21.943Z,100726.72
2023-04-21T08:10:48.450Z,100716.91
2023-04-21T08:13:14.867Z,100727.63
2023-04-21T08:15:41.768Z,100724.00
2023-04-21T08:18:08.172Z,100723.97
2023-04-21T08:20:34.615Z,100731.78
2023-04-21T08:23:01.133Z,100730.25
2023-04-21T08:25:27.560Z,100733.81
2023-04-21T08:27:54.000Z,100726.72
2023-04-21T08:30:20.357Z,100737.38
2023-04-21T08:32:46.837Z,100732.94
2023-04-21T08:35:13.328Z,100724.06
2023-04-21T08:37:40.082Z,100729.38
2023-04-21T08:40:06.481Z,100737.38
2023-04-21T08:42:32.866Z,100725.84
2023-04-21T08:44:59.245Z,100726.72
2023-04-21T08:47:25.742Z,100723.97
2023-04-21T08:49:52.175Z,100724.84
2023-04-21T08:52:18.553Z,100721.28
2023-04-21T08:54:44.959Z,100719.47
2023-04-21T08:57:15.890Z,100715.03
2023-04-21T08:59:42.612Z,100712.47
2023-04-21T09:02:10.040Z,100724.06
2023-04-21T09:04:36.741Z,100704.47
2023-04-21T09:07:03.319Z,100718.63
2023-04-21T09:09:31.380Z,100715.06
2023-04-21T09:11:58.443Z,100719.50
2023-04-21T09:14:24.799Z,100706.19
2023-04-21T09:16:51.307Z,100717.66
2023-04-21T09:19:17.955Z,100710.69
2023-04-21T09:21:44.540Z,100705.25
2023-04-21T09:24:13.063Z,100710.59
2023-04-21T09:26:39.462Z,100707.97
2023-04-21T09:29:05.999Z,100718.56
2023-04-21T09:31:32.366Z,100719.50
2023-04-21T09:34:01.214Z,100716.94
2023-04-21T09:36:28.319Z,100722.13
2023-04-21T09:39:15.266Z,100714.16
2023-04-21T09:41:41.283Z,100709.75
2023-04-21T09:44:08.229Z,100708.72
2023-04-21T09:46:34.704Z,100710.53
2023-04-21T09:49:01.457Z,100716.47
2023-04-21T09:51:42.745Z,100706.97
2023-04-21T09:54:28.191Z,100706.91
2023-04-21T09:56:56.417Z,100706.97
2023-04-21T09:59:23.705Z,100700.84
2023-04-21T10:01:51.115Z,100692.75
2023-04-21T10:04:17.966Z,100696.16
2023-04-21T10:06:44.750Z,100689.91
2023-04-21T10:09:11.089Z,100683.66
2023-04-21T10:11:37.524Z,100689.75
2023-04-21T10:14:03.883Z,100691.91
2023-04-21T10:16:30.432Z,100683.09
2023-04-21T10:18:56.810Z,100685.69
2023-04-21T10:21:24.350Z,100680.44
2023-04-21T10:23:52.443Z,100682.16
2023-04-21T10:26:18.827Z,100677.69
2023-04-21T10:28:45.282Z,100684.06
2023-04-21T10:31:11.656Z,100674.22
2023-04-21T10:33:38.067Z,100684.03
2023-04-21T10:36:05.478Z,100670.53
2023-04-21T10:38:31.817Z,100680.38
2023-04-21T10:40:58.194Z,100671.28
2023-04-21T10:43:24.577Z,100673.66
2023-04-21T10:45:50.921Z,100672.78
2023-04-21T10:48:17.306Z,100664.78
2023-04-21T10:50:45.316Z,100656.72
2023-04-21T10:53:11.824Z,100648.50
2023-04-21T10:55:38.272Z,100646.81
2023-04-21T10:58:04.717Z,100641.56
2023-04-21T11:00:31.505Z,100631.63
2023-04-21T11:02:58.335Z,100636.94
2023-04-21T11:05:24.876Z,100640.84
2023-04-21T11:07:51.381Z,100636.56
2023-04-21T11:10:17.758Z,100613.16
2023-04-21T11:12:44.147Z,100609.72
2023-04-21T11:15:10.523Z,100610.69
2023-04-21T11:17:38.277Z,100615.91
2023-04-21T11:20:04.807Z,100613.25
2023-04-21T11:22:31.198Z,100610.09
2023-04-21T11:24:57.797Z,100615.31
2023-04-21T11:27:24.240Z,100607.19
2023-04-21T11:29:50.676Z,100613.41
2023-04-21T11:32:17.148Z,100605.09
2023-04-21T11:34:43.549Z,100592.13
2023-04-21T11:37:10.005Z,100595.25
2023-04-21T11:39:36.408Z,100593.25
2023-04-21T11:42:03.030Z,100586.22
2023-04-21T11:44:29.367Z,100572.03
2023-04-21T11:46:55.730Z,100575.66
2023-04-21T11:49:22.058Z,100568.75
2023-04-21T11:51:48.448Z,100569.69
2023-04-21T11:54:14.799Z,100562.66
2023-04-21T11:56:41.137Z,100564.88
2023-04-21T11:59:07.698Z,100565.09
2023-04-21T12:01:34.104Z,100553.69
2023-04-21T12:04:01.421Z,100559.25
2023-04-21T12:06:31.404Z,100555.56
2023-04-21T12:08:57.887Z,100550.78
2023-04-21T12:11:24.346Z,100553.44
2023-04-21T12:13:50.779Z,100548.19
2023-04-21T12:16:17.202Z,100541.31
2023-04-21T12:18:44.118Z,100533.53
2023-04-21T12:21:10.606Z,100530.91
2023-04-21T12:23:39.090Z,100523.63
2023-04-21T12:26:05.599Z,100514.69
2023-04-21T12:28:31.926Z,100507.34
2023-04-21T12:30:58.344Z,100505.66
2023-04-21T12:33:24.802Z,100487.84
2023-04-21T12:35:51.410Z,100493.56
2023-04-21T12:38:17.750Z,100493.47
2023-04-21T12:40:44.116Z,100487.25
2023-04-21T12:43:10.511Z,100484.19
2023-04-21T12:45:37.055Z,100482.16
2023-04-21T12:48:05.013Z,100478.91
2023-04-21T12:50:31.427Z,100476.94
2023-04-21T12:52:57.828Z,100476.78
2023-04-21T12:55:24.287Z,100471.16
2023-04-21T12:57:50.939Z,100472.00
2023-04-21T13:00:17.292Z,100475.34
2023-04-21T13:02:43.813Z,100475.31
2023-04-21T13:05:11.964Z,100456.16
2023-04-21T13:07:38.408Z,100471.44
2023-04-21T13:10:06.382Z,100475.16
2023-04-21T13:12:32.806Z,100451.75
2023-04-21T13:14:59.158Z,100454.53
2023-04-21T13:17:25.633Z,100466.75
2023-04-21T13:19:52.433Z,100460.03
2023-04-21T13:22:18.850Z,100460.31
2023-04-21T13:24:45.479Z,100449.09
2023-04-21T13:27:11.898Z,100455.00
2023-04-21T13:29:38.273Z,100442.50
2023-04-21T13:32:04.745Z,100444.41
2023-04-21T13:34:31.311Z,100421.75
2023-04-21T13:36:57.854Z,100421.28
2023-04-21T13:39:24.439Z,100416.22
2023-04-21T13:41:53.560Z,100422.59
2023-04-21T13:44:21.601Z,100420.72
2023-04-21T13:46:48.204Z,100406.53
2023-04-21T13:49:14.675Z,100407.72
2023-04-21T13:51:41.127Z,100394.28
2023-04-21T13:54:07.488Z,100392.16
2023-04-21T13:56:33.894Z,100396.22
2023-04-21T13:59:00.323Z,100391.59
2023-04-21T14:01:26.794Z,100388.38
2023-04-21T14:03:54.050Z,100372.97
2023-04-21T14:06:20.770Z,100380.78
2023-04-21T14:08:47.134Z,100375.13
2023-04-21T14:11:13.489Z,100376.22
2023-04-21T14:13:51.983Z,100376.22
2023-04-21T14:16:26.478Z,100368.63
2023-04-21T14:18:53.016Z,100365.50
2023-04-21T14:21:19.402Z,100365.97
2023-04-21T14:23:45.804Z,100355.69
2023-04-21T14:26:12.329Z,100348.81
2023-04-21T14:28:38.703Z,100345.59
2023-04-21T14:31:05.098Z,100348.16
2023-04-21T14:33:33.342Z,100340.78
2023-04-21T14:35:59.824Z,100340.69
2023-04-21T14:38:26.194Z,100331.28
2023-04-21T14:40:54.570Z,100334.63
2023-04-21T14:43:21.027Z,100329.56
2023-04-21T14:45:47.453Z,100323.53
2023-04-21T14:48:14.319Z,100328.09
2023-04-21T14:50:40.860Z,100324.94
2023-04-21T14:53:07.284Z,100305.69
2023-04-21T14:55:33.770Z,100321.00
2023-04-21T14:58:00.258Z,100310.81
2023-04-21T15:00:27.642Z,100306.22
2023-04-21T15:02:54.122Z,100308.97
2023-04-21T15:05:21.013Z,100308.94
2023-04-21T15:07:47.418Z,100305.81
2023-04-21T15:10:13.924Z,100302.44
2023-04-21T15:12:41.748Z,100304.78
2023-04-21T15:15:08.242Z,100299.94
2023-04-21T15:17:34.613Z,100300.13
2023-04-21T15:20:01.021Z,100296.94
2023-04-21T15:22:27.451Z,100292.25
2023-04-21T15:24:54.657Z,100284.59
2023-04-21T15:27:21.704Z,100283.69
2023-04-21T15:29:48.149Z,100279.16
2023-04-21T15:32:14.559Z,100282.59
2023-04-21T15:34:40.992Z,100277.03
2023-04-21T15:37:07.327Z,100274.97
2023-04-21T15:39:36.888Z,100271.78
2023-04-21T15:42:05.591Z,100265.41
2023-04-21T15:44:34.933Z,100260.28
2023-04-21T15:47:01.892Z,100250.69
2023-04-21T15:49:28.471Z,100263.00
2023-04-21T15:51:54.886Z,100253.19
2023-04-21T15:54:21.261Z,100242.94
2023-04-21T15:56:47.616Z,100242.06
2023-04-21T15:59:13.998Z,100249.88
2023-04-21T16:01:40.514Z,100245.72
2023-04-21T16:04:07.127Z,100237.31
2023-04-21T16:06:33.778Z,100227.03
2023-04-21T16:09:00.323Z,100232.75
2023-04-21T16:11:28.021Z,100229.34
2023-04-21T16:13:54.453Z,100221.38
2023-04-21T16:16:20.933Z,100223.16
2023-04-21T16:18:47.325Z,100225.84
2023-04-21T16:21:13.681Z,100221.22
2023-04-21T16:23:40.382Z,100226.41
2023-04-21T16:26:08.839Z,100226.06
2023-04-21T16:28:35.550Z,100227.63
2023-04-21T16:31:01.940Z,100223.66
2023-04-21T16:33:28.401Z,100226.81
2023-04-21T16:35:56.085Z,100228.34
2023-04-21T16:38:23.823Z,100225.84
2023-04-21T16:40:50.396Z,100222.38
2023-04-21T16:43:16.781Z,100224.63
2023-04-21T16:45:43.337Z,100222.34
2023-04-21T16:48:09.879Z,100234.19
2023-04-21T16:50:36.375Z,100223.03
2023-04-21T16:53:02.788Z,100222.41
2023-04-21T16:55:29.310Z,100221.19
2023-04-21T16:57:56.063Z,100220.22
2023-04-21T17:00:22.620Z,100215.13
2023-04-21T17:02:49.160Z,100218.66
2023-04-21T17:05:16.621Z,100213.22
2023-04-21T17:07:44.545Z,100224.78
2023-04-21T17:10:10.919Z,100219.47
2023-04-21T17:12:37.591Z,100217.47
2023-04-21T17:15:05.138Z,100219.56
2023-04-21T17:17:31.536Z,100214.50
2023-04-21T17:19:58.108Z,100205.09
2023-04-21T17:22:24.496Z,100207.25
2023-04-21T17:24:53.651Z,100203.84
2023-04-21T17:27:20.843Z,100201.72
2023-04-21T17:29:47.279Z,100201.22
2023-04-21T17:32:14.304Z,100201.34
2023-04-21T17:34:40.976Z,100201.22
2023-04-21T17:37:07.452Z,100197.16
2023-04-21T17:39:34.021Z,100185.56
2023-04-21T17:42:01.896Z,100183.84
2023-04-21T17:44:28.267Z,100184.09
2023-04-21T17:46:54.630Z,100179.81
2023-04-21T17:49:22.949Z,100188.03
2023-04-21T17:51:49.290Z,100185.00
2023-04-21T17:54:16.939Z,100178.56
2023-04-21T17:56:43.383Z,100185.63
2023-04-21T17:59:09.815Z,100199.06
2023-04-21T18:01:36.293Z,100196.44
2023-04-21T18:04:02.857Z,100202.75
2023-04-21T18:06:29.467Z,100200.22
2023-04-21T18:08:55.981Z,100203.38
2023-04-21T18:11:22.572Z,100203.72
2023-04-21T18:13:48.974Z,100208.25
2023-04-21T18:16:15.469Z,100205.28
2023-04-21T18:18:41.844Z,100197.50
2023-04-21T18:21:08.278Z,100183.81
2023-04-21T18:23:34.780Z,100177.16
2023-04-21T18:26:01.997Z,100183.97
2023-04-21T18:28:29.524Z,100183.09
2023-04-21T18:30:55.869Z,100189.59
2023-04-21T18:33:22.250Z,100180.88
2023-04-21T18:35:48.783Z,100191.09
2023-04-21T18:38:15.444Z,100199.69
2023-04-21T18:40:41.863Z,100203.19
2023-04-21T18:43:08.325Z,100211.75
2023-04-21T18:45:34.712Z,100212.88
2023-04-21T18:48:01.114Z,100203.94
2023-04-21T18:50:27.577Z,100209.69
2023-04-21T18:52:54.819Z,100211.59
2023-04-21T18:55:21.326Z,100214.06
2023-04-21T18:57:47.795Z,100208.75
2023-04-21T19:00:14.251Z,100207.41
2023-04-21T19:02:41.177Z,100218.16
2023-04-21T19:05:07.721Z,100222.72
2023-04-21T19:07:37.260Z,100213.16
2023-04-21T19:10:03.732Z,100220.06
2023-04-21T19:12:30.067Z,100219.13
2023-04-21T19:14:56.690Z,100223.53
2023-04-21T19:17:23.215Z,100225.75
2023-04-21T19:19:50.997Z,100219.34
2023-04-21T19:22:17.484Z,100222.09
2023-04-21T19:24:43.878Z,100229.53
2023-04-21T19:27:10.512Z,100224.97
2023-04-21T19:29:37.053Z,100226.91
2023-04-21T19:32:03.636Z,100228.94
2023-04-21T19:34:30.311Z,100285.88
2023-04-21T19:36:56.745Z,100301.44
2023-04-21T19:39:23.241Z,100301.25
2023-04-21T19:41:49.646Z,100285.44
2023-04-21T19:44:16.046Z,100282.88
2023-04-21T19:46:43.107Z,100286.50
2023-04-21T19:49:12.879Z,100271.84
2023-04-21T19:51:39.979Z,100288.53
2023-04-21T19:54:11.564Z,100281.44
2023-04-21T19:56:38.626Z,100279.38
2023-04-21T19:59:05.638Z,100286.91
2023-04-21T20:01:32.514Z,100288.09
2023-04-21T20:03:59.843Z,100296.00
2023-04-21T20:06:26.839Z,100303.31
2023-04-21T20:08:53.216Z,100316.75
2023-04-21T20:11:19.644Z,100335.59
2023-04-21T20:13:46.152Z,100357.56
2023-04-21T20:16:12.712Z,100333.84
2023-04-21T20:18:39.107Z,100332.03
2023-04-21T20:21:06.383Z,100295.13
2023-04-21T20:23:32.760Z,100247.38
2023-04-21T20:25:59.220Z,100266.41
2023-04-21T20:28:27.596Z,100249.88
2023-04-21T20:30:56.174Z,100248.09
2023-04-21T20:33:22.676Z,100250.09
2023-04-21T20:35:49.595Z,100243.38
2023-04-21T20:38:16.381Z,100242.19
2023-04-21T20:40:42.933Z,100239.09
2023-04-21T20:43:10.081Z,100241.78
2023-04-21T20:45:36.492Z,100238.78
2023-04-21T20:48:02.894Z,100235.91
2023-04-21T20:50:29.283Z,100224.13
2023-04-21T20:52:56.714Z,100216.41
2023-04-21T20:55:23.065Z,100212.81
2023-04-21T20:57:49.659Z,100214.53
2023-04-21T21:00:16.167Z,100210.16
2023-04-21T21:02:42.773Z,100211.16
2023-04-21T21:05:09.297Z,100206.16
2023-04-21T21:07:35.795Z,100201.19
2023-04-21T21:10:03.523Z,100211.56
2023-04-21T21:12:29.896Z,100216.19
2023-04-21T21:14:56.380Z,100238.25
2023-04-21T21:17:22.847Z,100235.56
2023-04-21T21:19:49.496Z,100241.94
2023-04-21T21:22:16.034Z,100234.56
2023-04-21T21:24:43.025Z,100237.13
2023-04-21T21:27:09.417Z,100236.91
2023-04-21T21:29:36.043Z,100227.88
2023-04-21T21:32:03.086Z,100240.59
2023-04-21T21:34:29.838Z,100228.84
2023-04-21T21:36:56.249Z,100218.19
2023-04-21T21:39:22.610Z,100242.66
2023-04-21T21:41:49.117Z,100231.06
2023-04-21T21:44:15.524Z,100259.56
2023-04-21T21:46:42.015Z,100268.31
2023-04-21T21:49:08.420Z,100250.41
2023-04-21T21:51:34.778Z,100243.44
2023-04-21T21:54:01.358Z,100244.38
2023-04-21T21:56:27.827Z,100244.97
2023-04-21T21:58:54.426Z,100249.66
2023-04-21T22:01:20.941Z,100248.13
2023-04-21T22:03:47.524Z,100251.66
2023-04-21T22:06:15.586Z,100239.28
2023-04-21T22:08:43.717Z,100241.63
2023-04-21T22:11:10.213Z,100237.84
2023-04-21T22:13:36.653Z,100233.44
2023-04-21T22:16:03.087Z,100238.50
2023-04-21T22:18:30.121Z,100239.38
2023-04-21T22:20:56.512Z,100231.91
2023-04-21T22:23:22.938Z,100227.69
2023-04-21T22:25:49.328Z,100235.72
2023-04-21T22:28:15.717Z,100230.53
2023-04-21T22:30:42.033Z,100236.75
2023-04-21T22:33:08.509Z,100243.09
2023-04-21T22:35:34.960Z,100244.22
2023-04-21T22:38:01.644Z,100250.25
2023-04-21T22:40:28.182Z,100250.97
2023-04-21T22:42:54.760Z,100249.31
2023-04-21T22:45:21.160Z,100254.84
2023-04-21T22:47:49.181Z,100253.81
2023-04-21T22:50:15.973Z,100251.84
2023-04-21T22:52:42.387Z,100249.13
2023-04-21T22:55:09.208Z,100245.47
2023-04-21T22:57:37.413Z,100241.91
2023-04-21T23:00:03.822Z,100247.28
2023-04-21T23:02:30.455Z,100242.91
2023-04-21T23:04:56.977Z,100244.16
2023-04-21T23:07:23.522Z,100236.97
2023-04-21T23:09:50.075Z,100237.00
2023-04-21T23:12:16.474Z,100235.34
2023-04-21T23:14:42.856Z,100226.47
2023-04-21T23:17:09.286Z,100229.03
2023-04-21T23:19:35.841Z,100237.09
2023-04-21T23:22:02.301Z,100229.94
2023-04-21T23:24:28.700Z,100239.06
2023-04-21T23:26:55.182Z,100229.25
2023-04-21T23:29:21.711Z,100219.41
2023-04-21T23:31:48.136Z,100214.97
2023-04-21T23:34:15.315Z,100209.63
2023-04-21T23:36:41.856Z,100216.78
2023-04-21T23:39:08.283Z,100217.63
2023-04-21T23:41:34.636Z,100220.97
2023-04-21T23:44:01.047Z,100218.34
2023-04-21T23:46:27.656Z,100227.19
2023-04-21T23:48:54.166Z,100208.66
2023-04-21T23:51:21.512Z,100219.13
2023-04-21T23:53:47.914Z,100214.75
2023-04-21T23:56:14.352Z,100219.19
2023-04-21T23:58:40.800Z,100216.44
